Beaver, Wisconsin
Current Conditions -  °F | °C
As of 3:35 PM on Saturday 25 Oct 2014 (Local Time) from KMNM Reporting Station
Clear Clear  
Wind Chill: 64°   Ceiling: Unl
Heat Index: 64°   Visibility: 10mi
Dew Point: 25°   Wind: 8mph
Humidity: 22%   Direction: 300°WNW
Pressure: 29.76"   Gusts: 23mph
Location:  45.272°N, 88.1562°W
Report Text: KMNM 252035Z AUTO 30007G20KT 10SM CLR 18/M04 A2976 RMK AO1
Loading
Personal Weather Stations






























Interactive Weather Map
Tropical Storm Tracking
New forecast layout! Learn more

10-Day Weather Forecast

Advertisements
Track Severe Weather on mobile